createdAt,value
2022-11-16T00:02:14.798Z,49.30
2022-11-16T00:04:42.183Z,47.35
2022-11-16T00:07:09.330Z,42.88
2022-11-16T00:09:36.680Z,49.80
2022-11-16T00:12:06.274Z,44.92
2022-11-16T00:14:35.190Z,47.22
2022-11-16T00:17:02.877Z,39.47
2022-11-16T00:19:30.026Z,49.30
2022-11-16T00:21:56.922Z,43.67
2022-11-16T00:24:24.069Z,40.08
2022-11-16T00:26:53.782Z,46.50
2022-11-16T00:29:24.084Z,34.42
2022-11-16T00:31:51.295Z,38.50
2022-11-16T00:34:18.591Z,35.55
2022-11-16T00:36:46.233Z,39.05
2022-11-16T00:39:14.559Z,36.05
2022-11-16T00:41:42.151Z,34.47
2022-11-16T00:44:09.270Z,33.58
2022-11-16T00:46:35.906Z,34.17
2022-11-16T00:49:03.072Z,40.72
2022-11-16T00:51:29.755Z,36.15
2022-11-16T00:53:56.406Z,39.20
2022-11-16T00:56:23.599Z,35.13
2022-11-16T00:58:50.519Z,34.38
2022-11-16T01:01:17.452Z,36.33
2022-11-16T01:03:44.210Z,38.22
2022-11-16T01:06:14.287Z,35.40
2022-11-16T01:08:42.634Z,30.10
2022-11-16T01:11:31.025Z,34.72
2022-11-16T01:13:57.617Z,36.70
2022-11-16T01:16:24.471Z,36.15
2022-11-16T01:18:53.425Z,35.50
2022-11-16T01:21:20.547Z,34.28
2022-11-16T01:23:47.340Z,32.15
2022-11-16T01:26:14.116Z,34.63
2022-11-16T01:28:40.764Z,30.08
2022-11-16T01:31:08.936Z,38.47
2022-11-16T01:33:36.126Z,37.38
2022-11-16T01:36:02.783Z,40.15
2022-11-16T01:38:30.120Z,34.30
2022-11-16T01:40:57.099Z,29.17
2022-11-16T01:43:27.154Z,33.88
2022-11-16T01:45:54.142Z,30.88
2022-11-16T01:48:27.864Z,35.65
2022-11-16T01:50:57.448Z,36.17
2022-11-16T01:53:25.016Z,32.72
2022-11-16T01:55:52.522Z,35.17
2022-11-16T01:58:23.207Z,37.50
2022-11-16T02:00:50.260Z,32.75
2022-11-16T02:03:20.704Z,36.40
2022-11-16T02:05:56.309Z,43.25
2022-11-16T02:08:53.702Z,38.38
2022-11-16T02:11:58.275Z,39.15
2022-11-16T02:14:34.565Z,39.92
2022-11-16T02:17:14.416Z,43.47
2022-11-16T02:19:44.032Z,37.08
2022-11-16T02:22:23.157Z,39.08
2022-11-16T02:25:16.648Z,39.38
2022-11-16T02:28:19.489Z,35.60
2022-11-16T02:30:50.613Z,35.53
2022-11-16T02:33:21.387Z,34.33
2022-11-16T02:38:22.831Z,36.88
2022-11-16T02:40:53.787Z,35.05
2022-11-16T02:43:30.159Z,42.05
2022-11-16T02:46:01.661Z,38.72
2022-11-16T02:48:35.756Z,34.75
2022-11-16T02:51:03.319Z,34.83
2022-11-16T02:53:37.116Z,35.75
2022-11-16T02:56:03.704Z,33.40
2022-11-16T02:58:30.701Z,31.77
2022-11-16T03:01:06.415Z,38.25
2022-11-16T03:03:43.688Z,37.95
2022-11-16T03:06:18.169Z,36.90
2022-11-16T03:09:07.295Z,36.25
2022-11-16T03:11:55.681Z,35.15
2022-11-16T03:14:27.275Z,33.45
2022-11-16T03:16:57.604Z,37.30
2022-11-16T03:19:33.588Z,31.73
2022-11-16T03:22:04.875Z,34.80
2022-11-16T03:24:31.956Z,36.00
2022-11-16T03:27:05.665Z,32.63
2022-11-16T03:30:04.262Z,40.00
2022-11-16T03:32:41.927Z,36.63
2022-11-16T03:35:17.290Z,41.67
2022-11-16T03:37:47.477Z,35.35
2022-11-16T03:40:14.476Z,42.40
2022-11-16T03:42:43.735Z,41.58
2022-11-16T03:45:12.438Z,37.05
2022-11-16T03:47:41.154Z,38.65
2022-11-16T03:50:08.717Z,37.08
2022-11-16T03:52:35.718Z,39.22
2022-11-16T03:55:02.311Z,42.90
2022-11-16T03:57:28.994Z,46.35
2022-11-16T03:59:55.652Z,40.22
2022-11-16T04:02:22.249Z,36.00
2022-11-16T04:05:08.216Z,44.13
2022-11-16T04:07:53.755Z,43.13
2022-11-16T04:10:38.718Z,43.60
2022-11-16T04:13:24.365Z,43.97
2022-11-16T04:16:09.901Z,39.70
2022-11-16T04:18:55.075Z,44.35
2022-11-16T04:21:49.327Z,42.97
2022-11-16T04:24:26.156Z,49.13
2022-11-16T04:27:19.681Z,41.88
2022-11-16T04:29:46.914Z,41.28
2022-11-16T04:32:32.296Z,45.45
2022-11-16T04:35:17.942Z,50.00
2022-11-16T04:37:50.354Z,47.33
2022-11-16T04:40:18.033Z,54.53
2022-11-16T04:42:51.152Z,53.67
2022-11-16T04:45:36.805Z,44.85
2022-11-16T04:48:04.043Z,48.42
2022-11-16T04:50:30.729Z,49.97
2022-11-16T04:52:57.392Z,49.35
2022-11-16T04:55:24.048Z,47.75
2022-11-16T04:57:50.861Z,48.88
2022-11-16T05:00:18.117Z,50.97
2022-11-16T05:02:44.951Z,55.70
2022-11-16T05:05:12.301Z,51.75
2022-11-16T05:07:39.016Z,50.00
2022-11-16T05:10:06.903Z,57.65
2022-11-16T05:12:34.230Z,50.90
2022-11-16T05:15:01.311Z,61.28
2022-11-16T05:17:28.523Z,50.97
2022-11-16T05:20:13.780Z,49.95
2022-11-16T05:22:40.379Z,52.90
2022-11-16T05:25:08.852Z,54.15
2022-11-16T05:27:36.299Z,47.22
2022-11-16T05:30:05.040Z,57.65
2022-11-16T05:32:31.913Z,61.00
2022-11-16T05:34:58.475Z,56.83
2022-11-16T05:37:26.842Z,42.42
2022-11-16T05:39:57.114Z,52.47
2022-11-16T05:42:23.783Z,44.90
2022-11-16T05:44:50.359Z,47.55
2022-11-16T05:47:17.206Z,46.83
2022-11-16T05:49:43.795Z,41.72
2022-11-16T05:52:10.355Z,47.60
2022-11-16T05:54:36.871Z,51.90
2022-11-16T05:57:03.425Z,48.97
2022-11-16T05:59:30.219Z,50.05
2022-11-16T06:01:57.925Z,48.70
2022-11-16T06:04:24.979Z,58.72
2022-11-16T06:06:52.280Z,51.40
2022-11-16T06:09:18.956Z,50.28
2022-11-16T06:11:45.783Z,46.42
2022-11-16T06:14:12.444Z,42.90
2022-11-16T06:16:39.044Z,48.10
2022-11-16T06:19:05.645Z,50.00
2022-11-16T06:21:33.074Z,61.75
2022-11-16T06:24:00.106Z,52.22
2022-11-16T06:26:26.698Z,42.20
2022-11-16T06:28:54.987Z,46.38
2022-11-16T06:31:21.946Z,42.72
2022-11-16T06:33:48.542Z,43.75
2022-11-16T06:36:15.113Z,40.90
2022-11-16T06:38:41.752Z,54.75
2022-11-16T06:41:08.360Z,48.92
2022-11-16T06:43:34.975Z,44.42
2022-11-16T06:46:01.628Z,47.83
2022-11-16T06:48:28.193Z,48.97
2022-11-16T06:50:54.812Z,42.33
2022-11-16T06:53:27.590Z,47.25
2022-11-16T06:55:55.774Z,50.35
2022-11-16T06:58:22.487Z,48.50
2022-11-16T07:00:49.208Z,47.92
2022-11-16T07:03:15.917Z,45.80
2022-11-16T07:05:42.543Z,47.42
2022-11-16T07:08:09.583Z,46.08
2022-11-16T07:10:38.004Z,37.47
2022-11-16T07:13:05.257Z,42.90
2022-11-16T07:15:32.658Z,42.90
2022-11-16T07:18:06.709Z,42.15
2022-11-16T07:20:34.016Z,44.72
2022-11-16T07:23:03.995Z,40.13
2022-11-16T07:25:32.438Z,42.63
2022-11-16T07:27:59.052Z,39.60
2022-11-16T07:30:26.607Z,38.35
2022-11-16T07:32:57.921Z,42.35
2022-11-16T07:35:24.630Z,38.47
2022-11-16T07:37:51.136Z,36.15
2022-11-16T07:40:17.666Z,33.28
2022-11-16T07:42:45.489Z,34.78
2022-11-16T07:45:12.270Z,33.00
2022-11-16T07:47:38.837Z,29.05
2022-11-16T07:50:06.552Z,34.33
2022-11-16T07:52:33.104Z,30.65
2022-11-16T07:55:01.418Z,32.30
2022-11-16T07:57:28.028Z,24.75
2022-11-16T07:59:54.544Z,26.50
2022-11-16T08:02:21.237Z,23.13
2022-11-16T08:04:47.768Z,25.25
2022-11-16T08:07:14.754Z,22.25
2022-11-16T08:09:41.435Z,14.48
2022-11-16T08:12:08.028Z,19.05
2022-11-16T08:14:34.560Z,14.85
2022-11-16T08:17:01.139Z,16.23
2022-11-16T08:19:27.625Z,18.02
2022-11-16T08:21:54.193Z,15.75
2022-11-16T08:24:20.943Z,17.73
2022-11-16T08:26:47.557Z,18.40
2022-11-16T08:29:15.270Z,18.77
2022-11-16T08:31:44.676Z,18.10
2022-11-16T08:34:11.560Z,16.17
2022-11-16T08:36:38.070Z,21.02
2022-11-16T08:39:04.755Z,17.05
2022-11-16T08:41:31.325Z,15.38
2022-11-16T08:43:59.412Z,13.05
2022-11-16T08:46:26.209Z,18.67
2022-11-16T08:48:56.432Z,15.23
2022-11-16T08:51:23.492Z,12.20
2022-11-16T08:53:55.765Z,15.00
2022-11-16T08:56:22.779Z,13.90
2022-11-16T08:58:53.817Z,14.32
2022-11-16T09:01:25.562Z,11.25
2022-11-16T09:03:52.763Z,11.98
2022-11-16T09:06:19.886Z,10.25
2022-11-16T09:08:47.077Z,11.68
2022-11-16T09:11:17.082Z,10.88
2022-11-16T09:13:45.642Z,9.85
2022-11-16T09:16:12.425Z,9.73
2022-11-16T09:18:39.020Z,7.65
2022-11-16T09:21:05.647Z,9.15
2022-11-16T09:23:32.173Z,12.75
2022-11-16T09:26:02.419Z,7.22
2022-11-16T09:28:29.373Z,8.63
2022-11-16T09:31:00.455Z,9.20
2022-11-16T09:33:29.152Z,9.20
2022-11-16T09:35:55.854Z,7.88
2022-11-16T09:38:34.846Z,11.75
2022-11-16T09:41:22.081Z,9.88
2022-11-16T09:44:12.596Z,8.05
2022-11-16T09:46:48.069Z,9.32
2022-11-16T09:49:26.062Z,7.15
2022-11-16T09:52:00.226Z,9.35
2022-11-16T09:54:31.699Z,7.35
2022-11-16T09:57:02.075Z,8.10
2022-11-16T09:59:37.106Z,6.13
2022-11-16T10:02:22.637Z,8.38
2022-11-16T10:04:58.672Z,7.50
2022-11-16T10:07:41.846Z,7.35
2022-11-16T10:10:24.388Z,6.55
2022-11-16T10:13:14.648Z,7.47
2022-11-16T10:15:56.191Z,5.75
2022-11-16T10:18:41.369Z,5.30
2022-11-16T10:21:19.207Z,8.02
2022-11-16T10:24:03.802Z,5.90
2022-11-16T10:26:45.285Z,7.90
2022-11-16T10:29:31.366Z,7.63
2022-11-16T10:32:07.723Z,6.95
2022-11-16T10:34:53.278Z,5.00
2022-11-16T10:37:21.397Z,6.30
2022-11-16T10:39:53.348Z,5.78
2022-11-16T10:42:42.238Z,6.40
2022-11-16T10:45:23.962Z,4.68
2022-11-16T10:48:17.791Z,5.32
2022-11-16T10:50:47.830Z,6.93
2022-11-16T10:53:25.242Z,5.97
2022-11-16T10:56:15.416Z,6.15
2022-11-16T10:59:11.443Z,6.45
2022-11-16T11:01:41.845Z,5.50
2022-11-16T11:04:23.944Z,8.10
2022-11-16T11:06:55.665Z,6.68
2022-11-16T11:09:32.616Z,4.15
2022-11-16T11:12:34.163Z,5.78
2022-11-16T11:15:13.488Z,4.30
2022-11-16T11:17:42.009Z,6.15
2022-11-16T11:20:28.988Z,10.88
2022-11-16T11:22:56.872Z,5.45
2022-11-16T11:25:30.151Z,4.97
2022-11-16T11:28:27.792Z,6.18
2022-11-16T11:31:13.726Z,5.50
2022-11-16T11:33:48.655Z,6.25
2022-11-16T11:36:20.503Z,4.22
2022-11-16T11:39:04.988Z,5.35
2022-11-16T11:41:41.098Z,5.70
2022-11-16T11:44:13.496Z,4.60
2022-11-16T11:47:35.057Z,4.53
2022-11-16T11:49:36.112Z,5.47
2022-11-16T11:52:14.244Z,4.78
2022-11-16T11:54:46.878Z,3.80
2022-11-16T11:57:20.656Z,5.47
2022-11-16T11:59:48.618Z,3.35
2022-11-16T12:02:25.315Z,4.30
2022-11-16T12:07:47.131Z,3.92
2022-11-16T12:10:19.519Z,2.95
2022-11-16T12:12:54.222Z,3.58
2022-11-16T12:15:44.530Z,2.50
2022-11-16T12:18:54.454Z,2.25
2022-11-16T12:21:43.993Z,3.05
2022-11-16T12:24:35.106Z,5.00
2022-11-16T12:27:13.339Z,4.30
2022-11-16T12:30:15.039Z,4.05
2022-11-16T12:32:56.271Z,4.07
2022-11-16T12:35:41.640Z,4.22
2022-11-16T12:38:30.055Z,3.67
2022-11-16T12:41:24.169Z,4.25
2022-11-16T12:44:02.065Z,4.65
2022-11-16T12:46:34.260Z,3.28
2022-11-16T12:49:37.411Z,4.63
2022-11-16T12:52:30.527Z,7.05
2022-11-16T12:55:28.484Z,3.80
2022-11-16T12:58:43.263Z,3.95
2022-11-16T13:01:14.693Z,8.68
2022-11-16T13:03:47.579Z,5.93
2022-11-16T13:06:20.239Z,6.70
2022-11-16T13:09:06.783Z,7.53
2022-11-16T13:11:39.234Z,5.20
2022-11-16T13:14:13.290Z,6.25
2022-11-16T13:16:39.830Z,8.23
2022-11-16T13:19:29.651Z,5.93
2022-11-16T13:22:05.732Z,6.50
2022-11-16T13:24:54.719Z,7.18
2022-11-16T13:27:46.709Z,6.15
2022-11-16T13:30:23.496Z,6.93
2022-11-16T13:33:27.230Z,5.78
2022-11-16T13:35:54.090Z,6.35
2022-11-16T13:38:49.746Z,8.70
2022-11-16T13:41:37.374Z,7.20
2022-11-16T13:44:12.364Z,7.30
2022-11-16T13:47:20.005Z,9.13
2022-11-16T13:49:57.794Z,7.63
2022-11-16T13:53:36.296Z,8.98
2022-11-16T13:55:34.922Z,7.95
2022-11-16T13:58:04.608Z,8.05
2022-11-16T14:00:34.565Z,6.63
2022-11-16T14:03:16.857Z,7.72
2022-11-16T14:05:47.195Z,8.50
2022-11-16T14:08:19.843Z,6.35
2022-11-16T14:10:49.085Z,8.43
2022-11-16T14:13:40.738Z,6.00
2022-11-16T14:16:22.787Z,7.45
2022-11-16T14:18:52.154Z,8.15
2022-11-16T14:21:36.957Z,7.80
2022-11-16T14:24:29.136Z,6.68
2022-11-16T14:27:10.329Z,5.57
2022-11-16T14:29:48.966Z,5.97
2022-11-16T14:32:26.916Z,6.18
2022-11-16T14:34:55.771Z,7.93
2022-11-16T14:37:22.265Z,6.30
2022-11-16T14:39:58.951Z,5.95
2022-11-16T14:42:38.044Z,5.70
2022-11-16T14:45:12.951Z,10.93
2022-11-16T14:47:39.812Z,4.85
2022-11-16T14:50:27.485Z,4.75
2022-11-16T14:53:00.257Z,6.38
2022-11-16T14:55:27.723Z,6.30
2022-11-16T14:58:23.165Z,7.45
2022-11-16T15:00:56.040Z,4.97
2022-11-16T15:03:47.071Z,6.15
2022-11-16T15:06:16.258Z,6.47
2022-11-16T15:08:51.632Z,6.07
2022-11-16T15:11:48.821Z,7.65
2022-11-16T15:14:21.459Z,6.20
2022-11-16T15:16:56.305Z,6.55
2022-11-16T15:19:24.439Z,5.53
2022-11-16T15:21:53.708Z,7.00
2022-11-16T15:24:32.079Z,7.40
2022-11-16T15:27:30.558Z,5.90
2022-11-16T15:29:57.178Z,6.25
2022-11-16T15:32:26.865Z,7.10
2022-11-16T15:34:54.513Z,5.88
2022-11-16T15:37:31.030Z,8.50
2022-11-16T15:40:00.067Z,8.88
2022-11-16T15:42:28.332Z,7.32
2022-11-16T15:44:55.974Z,5.90
2022-11-16T15:47:23.686Z,6.88
2022-11-16T15:49:53.090Z,6.60
2022-11-16T15:52:50.432Z,8.50
2022-11-16T15:55:31.941Z,7.03
2022-11-16T15:58:26.760Z,9.60
2022-11-16T16:03:26.494Z,6.45
2022-11-16T16:05:54.769Z,8.35
2022-11-16T16:08:37.613Z,10.27
2022-11-16T16:13:42.464Z,10.15
2022-11-16T16:16:29.015Z,10.05
2022-11-16T16:19:06.540Z,9.00
2022-11-16T16:21:47.333Z,12.30
2022-11-16T16:24:42.087Z,8.20
2022-11-16T16:29:57.333Z,11.40
2022-11-16T16:32:26.886Z,9.27
2022-11-16T16:34:58.782Z,9.02
2022-11-16T16:37:30.260Z,8.95
2022-11-16T16:39:57.584Z,9.65
2022-11-16T16:42:24.440Z,8.40
2022-11-16T16:44:51.014Z,6.53
2022-11-16T16:47:20.762Z,7.10
2022-11-16T16:49:49.447Z,8.48
2022-11-16T16:52:16.830Z,9.93
2022-11-16T16:54:43.711Z,6.07
2022-11-16T16:57:15.027Z,6.70
2022-11-16T16:59:42.729Z,9.35
2022-11-16T17:02:11.667Z,6.97
2022-11-16T17:04:38.241Z,7.97
2022-11-16T17:07:05.422Z,8.52
2022-11-16T17:09:32.036Z,7.43
2022-11-16T17:11:58.608Z,6.22
2022-11-16T17:14:25.289Z,8.57
2022-11-16T17:16:51.981Z,7.47
2022-11-16T17:19:19.098Z,7.38
2022-11-16T17:21:45.891Z,6.75
2022-11-16T17:24:12.835Z,6.03
2022-11-16T17:26:40.766Z,5.38
2022-11-16T17:29:07.639Z,6.75
2022-11-16T17:31:34.335Z,7.93
2022-11-16T17:34:01.300Z,6.95
2022-11-16T17:36:27.806Z,6.28
2022-11-16T17:38:54.290Z,6.47
2022-11-16T17:41:24.202Z,8.55
2022-11-16T17:43:53.030Z,9.55
2022-11-16T17:46:22.131Z,10.82
2022-11-16T17:48:50.770Z,8.25
2022-11-16T17:51:23.091Z,9.73
2022-11-16T17:53:49.970Z,9.88
2022-11-16T17:56:22.483Z,9.63
2022-11-16T17:58:52.323Z,9.95
2022-11-16T18:01:19.340Z,8.05
2022-11-16T18:03:45.925Z,7.93
2022-11-16T18:06:15.190Z,9.65
2022-11-16T18:08:43.879Z,7.35
2022-11-16T18:11:11.913Z,6.15
2022-11-16T18:13:38.866Z,6.45
2022-11-16T18:16:06.761Z,7.72
2022-11-16T18:18:34.302Z,7.03
2022-11-16T18:21:01.457Z,6.25
2022-11-16T18:23:28.851Z,6.80
2022-11-16T18:25:56.257Z,8.63
2022-11-16T18:28:23.313Z,6.22
2022-11-16T18:30:52.901Z,7.57
2022-11-16T18:33:19.680Z,4.18
2022-11-16T18:35:46.298Z,5.68
2022-11-16T18:38:13.216Z,7.38
2022-11-16T18:40:42.567Z,7.90
2022-11-16T18:43:15.552Z,7.15
2022-11-16T18:45:42.077Z,8.40
2022-11-16T18:48:10.374Z,7.78
2022-11-16T18:50:37.096Z,8.63
2022-11-16T18:53:03.608Z,7.40
2022-11-16T18:55:30.192Z,6.05
2022-11-16T18:57:57.720Z,8.80
2022-11-16T19:00:24.298Z,7.07
2022-11-16T19:02:51.561Z,6.65
2022-11-16T19:05:18.307Z,10.45
2022-11-16T19:07:44.826Z,8.18
2022-11-16T19:10:12.496Z,6.38
2022-11-16T19:12:39.342Z,6.07
2022-11-16T19:15:06.416Z,8.07
2022-11-16T19:20:32.021Z,8.25
2022-11-16T19:23:03.340Z,9.50
2022-11-16T19:25:29.837Z,6.90
2022-11-16T19:27:56.372Z,7.15
2022-11-16T19:30:23.135Z,8.15
2022-11-16T19:32:55.494Z,5.60
2022-11-16T19:35:24.798Z,10.63
2022-11-16T19:37:51.497Z,9.13
2022-11-16T19:40:23.703Z,9.43
2022-11-16T19:42:52.878Z,10.15
2022-11-16T19:45:19.450Z,9.35
2022-11-16T19:47:46.024Z,11.98
2022-11-16T19:50:12.586Z,9.32
2022-11-16T19:52:39.195Z,10.68
2022-11-16T19:55:05.946Z,10.48
2022-11-16T19:57:32.671Z,9.60
2022-11-16T19:59:59.364Z,12.35
2022-11-16T20:02:25.938Z,12.43
2022-11-16T20:04:53.470Z,11.98
2022-11-16T20:07:20.331Z,14.05
2022-11-16T20:09:52.074Z,11.63
2022-11-16T20:12:20.272Z,11.30
2022-11-16T20:14:46.813Z,13.38
2022-11-16T20:17:13.399Z,9.48
2022-11-16T20:19:40.104Z,13.52
2022-11-16T20:22:06.682Z,12.80
2022-11-16T20:24:33.194Z,12.95
2022-11-16T20:27:00.778Z,14.18
2022-11-16T20:29:27.598Z,11.80
2022-11-16T20:31:54.130Z,9.45
2022-11-16T20:34:22.182Z,14.27
2022-11-16T20:36:51.016Z,12.68
2022-11-16T20:39:20.341Z,13.18
2022-11-16T20:41:48.147Z,10.65
2022-11-16T20:44:26.679Z,13.25
2022-11-16T20:46:53.307Z,12.20
2022-11-16T20:49:20.109Z,14.77
2022-11-16T20:51:50.553Z,12.38
2022-11-16T20:54:17.123Z,10.90
2022-11-16T20:56:44.570Z,10.80
2022-11-16T20:59:11.230Z,11.32
2022-11-16T21:01:37.842Z,14.02
2022-11-16T21:04:05.936Z,12.20
2022-11-16T21:06:33.457Z,11.98
2022-11-16T21:09:00.515Z,12.40
2022-11-16T21:11:30.085Z,12.05
2022-11-16T21:14:15.234Z,14.43
2022-11-16T21:16:41.814Z,10.88
2022-11-16T21:19:08.427Z,12.18
2022-11-16T21:21:35.043Z,12.23
2022-11-16T21:24:01.800Z,13.98
2022-11-16T21:26:30.181Z,11.48
2022-11-16T21:28:58.055Z,12.02
2022-11-16T21:31:26.970Z,13.35
2022-11-16T21:33:54.416Z,12.70
2022-11-16T21:36:23.451Z,11.93
2022-11-16T21:38:50.515Z,13.35
2022-11-16T21:41:18.460Z,11.77
2022-11-16T21:43:45.087Z,12.45
2022-11-16T21:46:16.545Z,11.18
2022-11-16T21:48:43.090Z,9.70
2022-11-16T21:51:12.292Z,12.18
2022-11-16T21:53:39.664Z,10.50
2022-11-16T21:56:08.215Z,10.63
2022-11-16T21:58:34.709Z,11.55
2022-11-16T22:01:02.441Z,9.70
2022-11-16T22:03:30.733Z,9.38
2022-11-16T22:06:21.312Z,9.52
2022-11-16T22:08:48.405Z,11.32
2022-11-16T22:11:16.426Z,9.77
2022-11-16T22:13:44.037Z,10.25
2022-11-16T22:16:15.321Z,7.90
2022-11-16T22:18:42.041Z,11.05
2022-11-16T22:21:08.947Z,9.63
2022-11-16T22:23:36.822Z,9.88
2022-11-16T22:26:07.619Z,8.73
2022-11-16T22:28:34.815Z,9.60
2022-11-16T22:31:15.087Z,6.93
2022-11-16T22:33:42.196Z,8.43
2022-11-16T22:36:13.367Z,10.32
2022-11-16T22:38:39.938Z,9.57
2022-11-16T22:41:06.763Z,8.68
2022-11-16T22:43:35.940Z,9.35
2022-11-16T22:46:05.456Z,9.07
2022-11-16T22:48:36.745Z,10.55
2022-11-16T22:51:06.965Z,11.48
2022-11-16T22:53:34.621Z,10.80
2022-11-16T22:56:08.977Z,11.35
2022-11-16T22:58:37.179Z,10.90
2022-11-16T23:01:04.950Z,9.38
2022-11-16T23:03:31.721Z,11.35
2022-11-16T23:05:58.814Z,9.27
2022-11-16T23:08:26.292Z,8.40
2022-11-16T23:11:27.333Z,8.70
2022-11-16T23:14:13.268Z,10.38
2022-11-16T23:16:41.016Z,8.18
2022-11-16T23:19:28.137Z,7.85
2022-11-16T23:22:14.837Z,9.68
2022-11-16T23:25:00.534Z,7.97
2022-11-16T23:27:40.645Z,8.30
2022-11-16T23:30:12.479Z,7.65
2022-11-16T23:32:40.202Z,8.45
2022-11-16T23:35:07.511Z,7.70
2022-11-16T23:37:34.686Z,6.63
2022-11-16T23:40:01.189Z,9.40
2022-11-16T23:42:47.947Z,8.43
2022-11-16T23:45:14.719Z,7.82
2022-11-16T23:47:41.600Z,8.30
2022-11-16T23:50:08.490Z,8.38
2022-11-16T23:52:34.979Z,8.35
2022-11-16T23:55:01.479Z,9.73
2022-11-16T23:57:28.024Z,8.38
2022-11-16T23:59:54.527Z,8.45
